createdAt,value
2018-12-30T00:00:54.956Z,20.43
2018-12-30T00:03:23.231Z,14.37
2018-12-30T00:05:52.111Z,19.50
2018-12-30T00:08:20.681Z,13.50
2018-12-30T00:10:49.002Z,16.93
2018-12-30T00:13:17.385Z,18.07
2018-12-30T00:15:45.682Z,15.17
2018-12-30T00:18:13.946Z,14.17
2018-12-30T00:20:42.246Z,14.47
2018-12-30T00:23:10.549Z,11.37
2018-12-30T00:25:38.912Z,18.50
2018-12-30T00:28:07.207Z,32.03
2018-12-30T00:30:35.498Z,19.63
2018-12-30T00:33:03.827Z,13.90
2018-12-30T00:35:32.225Z,11.73
2018-12-30T00:38:02.136Z,22.57
2018-12-30T00:40:30.391Z,27.20
2018-12-30T00:42:58.763Z,26.97
2018-12-30T00:45:27.238Z,24.80
2018-12-30T00:47:55.763Z,27.03
2018-12-30T00:50:24.068Z,36.20
2018-12-30T00:52:52.723Z,16.03
2018-12-30T00:55:20.985Z,12.87
2018-12-30T00:57:49.262Z,19.73
2018-12-30T01:00:17.574Z,14.20
2018-12-30T01:02:45.830Z,15.80
2018-12-30T01:05:15.031Z,8.37
2018-12-30T01:07:43.470Z,18.90
2018-12-30T01:10:11.802Z,29.07
2018-12-30T01:12:40.174Z,23.80
2018-12-30T01:15:08.507Z,20.47
2018-12-30T01:17:36.814Z,16.07
2018-12-30T01:20:05.084Z,22.27
2018-12-30T01:22:33.416Z,10.00
2018-12-30T01:25:01.824Z,10.63
2018-12-30T01:27:30.087Z,17.43
2018-12-30T01:29:58.408Z,23.20
2018-12-30T01:32:26.684Z,13.83
2018-12-30T01:34:55.485Z,22.43
2018-12-30T01:37:23.783Z,19.80
2018-12-30T01:39:52.096Z,21.27
2018-12-30T01:42:20.348Z,14.90
2018-12-30T01:44:48.746Z,19.83
2018-12-30T01:47:17.068Z,18.33
2018-12-30T01:49:45.497Z,17.13
2018-12-30T01:52:13.820Z,26.13
2018-12-30T01:54:42.078Z,32.77
2018-12-30T01:57:10.336Z,17.10
2018-12-30T01:59:38.797Z,20.57
2018-12-30T02:02:07.057Z,20.40
2018-12-30T02:04:35.371Z,17.40
2018-12-30T02:07:03.641Z,23.37
2018-12-30T02:09:31.938Z,25.40
2018-12-30T02:12:00.820Z,14.90
2018-12-30T02:14:29.087Z,17.03
2018-12-30T02:16:57.521Z,23.93
2018-12-30T02:19:25.776Z,17.67
2018-12-30T02:21:54.059Z,25.60
2018-12-30T02:24:22.460Z,16.30
2018-12-30T02:26:50.707Z,28.97
2018-12-30T02:29:19.221Z,33.60
2018-12-30T02:31:47.511Z,14.17
2018-12-30T02:34:15.899Z,25.97
2018-12-30T02:36:44.301Z,13.93
2018-12-30T02:39:12.568Z,22.73
2018-12-30T02:41:41.888Z,16.93
2018-12-30T02:44:10.155Z,28.07
2018-12-30T02:46:38.438Z,20.97
2018-12-30T02:49:06.746Z,21.13
2018-12-30T02:51:34.999Z,13.40
2018-12-30T02:54:03.742Z,13.93
2018-12-30T02:56:32.058Z,37.20
2018-12-30T02:59:00.388Z,27.97
2018-12-30T03:01:28.674Z,25.63
2018-12-30T03:03:56.939Z,12.27
2018-12-30T03:06:25.398Z,22.67
2018-12-30T03:08:53.659Z,19.17
2018-12-30T03:11:22.099Z,16.10
2018-12-30T03:13:50.370Z,19.50
2018-12-30T03:16:18.607Z,16.77
2018-12-30T03:18:47.489Z,22.70
2018-12-30T03:21:15.752Z,32.53
2018-12-30T03:23:44.014Z,20.53
2018-12-30T03:26:12.343Z,24.00
2018-12-30T03:28:40.589Z,20.90
2018-12-30T03:31:09.014Z,20.90
2018-12-30T03:33:37.268Z,27.13
2018-12-30T03:36:05.520Z,16.50
2018-12-30T03:38:33.851Z,9.37
2018-12-30T03:41:02.104Z,25.27
2018-12-30T03:43:30.392Z,25.70
2018-12-30T03:45:58.696Z,11.37
2018-12-30T03:48:26.950Z,14.80
2018-12-30T03:50:55.346Z,17.53
2018-12-30T03:53:23.596Z,21.23
2018-12-30T03:55:51.986Z,8.27
2018-12-30T03:58:20.274Z,17.13
2018-12-30T04:00:48.572Z,24.90
2018-12-30T04:03:16.880Z,30.47
2018-12-30T04:05:45.146Z,14.00
2018-12-30T04:08:13.547Z,15.30
2018-12-30T04:10:41.855Z,17.93
2018-12-30T04:13:10.101Z,16.07
2018-12-30T04:15:38.415Z,17.93
2018-12-30T04:18:06.675Z,24.17
2018-12-30T04:20:34.936Z,28.63
2018-12-30T04:23:03.245Z,17.10
2018-12-30T04:25:31.496Z,31.50
2018-12-30T04:27:59.747Z,23.70
2018-12-30T04:30:28.036Z,34.30
2018-12-30T04:32:56.327Z,15.07
2018-12-30T04:35:24.609Z,13.60
2018-12-30T04:37:53.052Z,26.77
2018-12-30T04:40:21.343Z,16.93
2018-12-30T04:42:49.588Z,23.30
2018-12-30T04:45:17.892Z,19.23
2018-12-30T04:47:46.173Z,14.00
2018-12-30T04:50:14.423Z,13.57
2018-12-30T04:52:42.796Z,24.60
2018-12-30T04:55:11.075Z,18.43
2018-12-30T04:57:39.394Z,13.13
2018-12-30T05:00:07.723Z,17.37
2018-12-30T05:02:35.973Z,14.70
2018-12-30T05:05:05.158Z,28.77
2018-12-30T05:07:33.408Z,16.43
2018-12-30T05:10:01.698Z,14.47
2018-12-30T05:12:29.994Z,12.73
2018-12-30T05:14:58.247Z,10.40
2018-12-30T05:17:26.566Z,23.73
2018-12-30T05:19:54.861Z,9.90
2018-12-30T05:22:23.181Z,5.60
2018-12-30T05:24:51.428Z,14.30
2018-12-30T05:27:19.743Z,18.17
2018-12-30T05:29:47.995Z,19.17
2018-12-30T05:32:16.266Z,13.93
2018-12-30T05:34:44.574Z,25.40
2018-12-30T05:37:12.849Z,18.83
2018-12-30T05:39:41.126Z,12.20
2018-12-30T05:42:09.426Z,22.10
2018-12-30T05:44:37.848Z,25.43
2018-12-30T05:47:07.670Z,16.50
2018-12-30T05:49:35.923Z,15.83
2018-12-30T05:52:04.313Z,26.13
2018-12-30T05:54:32.580Z,19.77
2018-12-30T05:57:00.909Z,9.80
2018-12-30T05:59:29.189Z,7.00
2018-12-30T06:01:57.517Z,14.57
2018-12-30T06:04:25.797Z,15.00
2018-12-30T06:06:54.133Z,13.00
2018-12-30T06:09:22.562Z,13.70
2018-12-30T06:11:50.850Z,27.27
2018-12-30T06:14:19.146Z,14.00
2018-12-30T06:16:47.755Z,9.57
2018-12-30T06:19:16.057Z,27.73
2018-12-30T06:21:44.308Z,22.23
2018-12-30T06:24:12.712Z,11.70
2018-12-30T06:26:41.486Z,13.90
2018-12-30T06:29:09.785Z,26.07
2018-12-30T06:31:38.067Z,8.63
2018-12-30T06:34:06.357Z,12.27
2018-12-30T06:36:34.746Z,29.90
2018-12-30T06:39:03.885Z,14.47
2018-12-30T06:41:32.150Z,25.33
2018-12-30T06:44:00.479Z,24.57
2018-12-30T06:46:28.726Z,15.27
2018-12-30T06:48:57.022Z,8.73
2018-12-30T06:51:25.282Z,24.80
2018-12-30T06:53:53.590Z,17.13
2018-12-30T06:56:21.867Z,13.07
2018-12-30T06:58:50.157Z,18.53
2018-12-30T07:01:18.436Z,25.27
2018-12-30T07:03:46.734Z,14.73
2018-12-30T07:06:15.009Z,26.43
2018-12-30T07:08:43.939Z,20.43
2018-12-30T07:11:12.503Z,17.43
2018-12-30T07:13:40.832Z,16.03
2018-12-30T07:16:09.102Z,19.13
2018-12-30T07:18:37.418Z,10.23
2018-12-30T07:21:05.710Z,18.93
2018-12-30T07:23:33.972Z,16.43
2018-12-30T07:26:03.943Z,22.20
2018-12-30T07:28:32.436Z,16.47
2018-12-30T07:31:00.730Z,26.13
2018-12-30T07:33:29.019Z,27.50
2018-12-30T07:35:57.309Z,21.17
2018-12-30T07:38:25.568Z,24.73
2018-12-30T07:40:53.907Z,19.40
2018-12-30T07:43:22.284Z,12.90
2018-12-30T07:45:50.563Z,33.73
2018-12-30T07:48:18.830Z,24.30
2018-12-30T07:50:47.109Z,16.63
2018-12-30T07:53:15.371Z,17.37
2018-12-30T07:55:43.769Z,15.53
2018-12-30T07:58:12.050Z,10.03
2018-12-30T08:00:40.304Z,18.30
2018-12-30T08:03:08.616Z,25.00
2018-12-30T08:05:36.958Z,15.23
2018-12-30T08:08:05.223Z,25.43
2018-12-30T08:10:33.529Z,11.77
2018-12-30T08:13:01.772Z,19.40
2018-12-30T08:15:30.066Z,24.43
2018-12-30T08:17:58.449Z,12.20
2018-12-30T08:20:26.691Z,14.20
2018-12-30T08:22:54.953Z,9.13
2018-12-30T08:25:24.859Z,18.20
2018-12-30T08:27:53.118Z,15.93
2018-12-30T08:30:21.669Z,28.63
2018-12-30T08:32:49.918Z,17.87
2018-12-30T08:35:18.206Z,26.80
2018-12-30T08:37:46.464Z,11.60
2018-12-30T08:40:14.869Z,36.67
2018-12-30T08:42:43.205Z,18.00
2018-12-30T08:45:11.525Z,15.37
2018-12-30T08:47:39.799Z,18.13
2018-12-30T08:50:08.059Z,26.47
2018-12-30T08:52:36.374Z,16.43
2018-12-30T08:55:04.760Z,25.43
2018-12-30T08:57:33.062Z,21.43
2018-12-30T09:00:02.049Z,24.33
2018-12-30T09:02:30.611Z,14.93
2018-12-30T09:04:58.903Z,22.90
2018-12-30T09:07:27.155Z,19.60
2018-12-30T09:09:56.159Z,17.80
2018-12-30T09:12:24.437Z,21.57
2018-12-30T09:14:52.685Z,9.50
2018-12-30T09:17:21.128Z,15.70
2018-12-30T09:19:49.389Z,21.13
2018-12-30T09:22:17.697Z,14.27
2018-12-30T09:24:46.146Z,25.50
2018-12-30T09:27:14.454Z,15.43
2018-12-30T09:29:42.734Z,11.30
2018-12-30T09:32:11.022Z,31.37
2018-12-30T09:34:39.318Z,15.90
2018-12-30T09:37:07.704Z,18.07
2018-12-30T09:39:36.017Z,15.90
2018-12-30T09:42:04.268Z,22.53
2018-12-30T09:44:32.546Z,17.80
2018-12-30T09:47:00.869Z,17.10
2018-12-30T09:49:29.196Z,20.83
2018-12-30T09:51:58.754Z,13.17
2018-12-30T09:54:27.252Z,15.40
2018-12-30T09:56:55.644Z,23.50
2018-12-30T09:59:23.894Z,16.93
2018-12-30T10:01:52.157Z,16.07
2018-12-30T10:04:20.423Z,22.83
2018-12-30T10:06:48.761Z,27.33
2018-12-30T10:09:17.148Z,20.10
2018-12-30T10:11:45.408Z,42.53
2018-12-30T10:14:13.667Z,16.83
2018-12-30T10:16:42.089Z,25.13
2018-12-30T10:19:10.390Z,23.73
2018-12-30T10:21:38.672Z,20.50
2018-12-30T10:24:06.992Z,16.73
2018-12-30T10:26:35.321Z,25.23
2018-12-30T10:29:03.659Z,22.17
2018-12-30T10:31:31.897Z,14.17
2018-12-30T10:34:00.197Z,14.23
2018-12-30T10:36:28.506Z,26.47
2018-12-30T10:38:56.789Z,22.87
2018-12-30T10:41:25.198Z,16.50
2018-12-30T10:43:53.508Z,34.63
2018-12-30T10:46:21.781Z,5.60
2018-12-30T10:48:51.040Z,17.60
2018-12-30T10:51:19.339Z,28.37
2018-12-30T10:53:47.581Z,19.43
2018-12-30T10:56:15.864Z,18.07
2018-12-30T10:58:44.743Z,14.07
2018-12-30T11:01:13.070Z,19.40
2018-12-30T11:03:42.879Z,18.13
2018-12-30T11:06:11.159Z,26.63
2018-12-30T11:08:39.359Z,9.47
2018-12-30T11:11:07.964Z,13.70
2018-12-30T11:13:36.273Z,18.03
2018-12-30T11:16:04.921Z,13.13
2018-12-30T11:18:33.199Z,11.80
2018-12-30T11:21:01.635Z,14.23
2018-12-30T11:23:29.934Z,6.03
2018-12-30T11:25:58.197Z,10.97
2018-12-30T11:28:26.522Z,20.90
2018-12-30T11:30:55.618Z,11.80
2018-12-30T11:33:23.908Z,9.20
2018-12-30T11:35:52.156Z,25.53
2018-12-30T11:38:20.491Z,14.10
2018-12-30T11:40:48.755Z,16.80
2018-12-30T11:43:17.187Z,15.23
2018-12-30T11:45:45.441Z,16.47
2018-12-30T11:48:13.762Z,23.33
2018-12-30T11:50:42.151Z,3.37
2018-12-30T11:53:10.463Z,20.60
2018-12-30T11:55:38.709Z,13.70
2018-12-30T11:58:06.987Z,9.40
2018-12-30T12:00:35.257Z,15.27
2018-12-30T12:03:03.533Z,9.37
2018-12-30T12:05:31.787Z,15.90
2018-12-30T12:08:00.139Z,16.87
2018-12-30T12:10:28.441Z,11.63
2018-12-30T12:12:56.718Z,19.57
2018-12-30T12:15:25.001Z,12.60
2018-12-30T12:17:53.249Z,10.13
2018-12-30T12:20:21.564Z,9.20
2018-12-30T12:22:49.866Z,18.00
2018-12-30T12:25:18.174Z,17.33
2018-12-30T12:27:46.487Z,11.90
2018-12-30T12:30:14.777Z,6.87
2018-12-30T12:32:44.678Z,15.27
2018-12-30T12:35:13.855Z,9.87
2018-12-30T12:37:42.174Z,8.23
2018-12-30T12:40:10.464Z,6.77
2018-12-30T12:42:38.837Z,11.30
2018-12-30T12:45:07.085Z,11.77
2018-12-30T12:47:35.494Z,17.60
2018-12-30T12:50:03.809Z,19.80
2018-12-30T12:52:32.058Z,13.30
2018-12-30T12:55:00.357Z,14.60
2018-12-30T12:57:28.630Z,14.30
2018-12-30T12:59:56.951Z,11.23
2018-12-30T13:02:25.275Z,8.53
2018-12-30T13:04:53.597Z,8.73
2018-12-30T13:07:21.856Z,8.33
2018-12-30T13:09:50.220Z,19.10
2018-12-30T13:12:18.470Z,12.10
2018-12-30T13:14:46.745Z,12.03
2018-12-30T13:17:15.036Z,14.47
2018-12-30T13:19:44.135Z,11.83
2018-12-30T13:22:12.386Z,20.93
2018-12-30T13:24:40.707Z,6.67
2018-12-30T13:27:09.020Z,8.23
2018-12-30T13:29:37.997Z,9.03
2018-12-30T13:32:06.250Z,11.10
2018-12-30T13:34:34.676Z,11.90
2018-12-30T13:37:02.961Z,14.23
2018-12-30T13:39:31.269Z,10.50
2018-12-30T13:41:59.566Z,15.60
2018-12-30T13:44:27.875Z,9.47
2018-12-30T13:46:56.126Z,11.07
2018-12-30T13:49:24.499Z,8.30
2018-12-30T13:51:53.335Z,11.37
2018-12-30T13:54:21.730Z,4.17
2018-12-30T13:56:49.984Z,4.80
2018-12-30T13:59:18.567Z,10.20
2018-12-30T14:01:46.869Z,6.00
2018-12-30T14:04:15.100Z,4.00
2018-12-30T14:06:43.379Z,8.07
2018-12-30T14:09:11.662Z,13.63
2018-12-30T14:11:39.962Z,4.37
2018-12-30T14:14:08.206Z,7.83
2018-12-30T14:16:36.475Z,4.93
2018-12-30T14:19:04.724Z,13.17
2018-12-30T14:21:33.055Z,13.47
2018-12-30T14:24:01.437Z,10.17
2018-12-30T14:26:29.680Z,9.13
2018-12-30T14:28:57.969Z,7.23
2018-12-30T14:31:26.264Z,5.53
2018-12-30T14:33:54.561Z,9.87
2018-12-30T14:36:22.805Z,5.90
2018-12-30T14:38:51.081Z,9.27
2018-12-30T14:41:19.425Z,5.23
2018-12-30T14:43:47.708Z,12.07
2018-12-30T14:46:15.957Z,11.53
2018-12-30T14:48:44.261Z,3.20
2018-12-30T14:51:12.506Z,10.50
2018-12-30T14:53:40.746Z,4.13
2018-12-30T14:56:09.054Z,15.53
2018-12-30T14:58:37.305Z,5.33
2018-12-30T15:01:05.558Z,7.43
2018-12-30T15:03:33.845Z,14.23
2018-12-30T15:06:02.124Z,6.10
2018-12-30T15:08:30.381Z,7.07
2018-12-30T15:10:58.693Z,11.93
2018-12-30T15:13:26.986Z,15.00
2018-12-30T15:15:55.220Z,13.27
2018-12-30T15:18:23.501Z,8.27
2018-12-30T15:20:52.628Z,7.63
2018-12-30T15:23:20.904Z,11.20
2018-12-30T15:25:49.258Z,16.55
2018-12-30T15:28:17.538Z,10.50
2018-12-30T15:30:45.822Z,7.70
2018-12-30T15:33:14.092Z,11.83
2018-12-30T15:35:42.799Z,8.40
2018-12-30T15:38:11.076Z,8.30
2018-12-30T15:40:39.323Z,14.43
2018-12-30T15:43:08.480Z,37.20
2018-12-30T15:45:36.726Z,18.03
2018-12-30T15:48:05.112Z,23.37
2018-12-30T15:50:33.421Z,23.27
2018-12-30T15:53:01.668Z,12.60
2018-12-30T15:55:29.958Z,10.83
2018-12-30T15:57:58.231Z,36.50
2018-12-30T16:00:26.535Z,21.17
2018-12-30T16:02:54.779Z,15.03
2018-12-30T16:05:23.239Z,11.00
2018-12-30T16:07:51.467Z,11.73
2018-12-30T16:10:19.785Z,24.43
2018-12-30T16:12:48.050Z,28.37
2018-12-30T16:15:16.304Z,13.40
2018-12-30T16:17:44.596Z,22.87
2018-12-30T16:20:12.874Z,21.67
2018-12-30T16:22:41.157Z,19.30
2018-12-30T16:25:09.480Z,18.03
2018-12-30T16:27:37.739Z,23.63
2018-12-30T16:30:08.420Z,21.03
2018-12-30T16:32:36.736Z,19.90
2018-12-30T16:35:05.074Z,28.80
2018-12-30T16:37:33.454Z,22.37
2018-12-30T16:40:01.705Z,21.47
2018-12-30T16:42:29.965Z,27.70
2018-12-30T16:44:58.262Z,24.93
2018-12-30T16:47:26.567Z,25.30
2018-12-30T16:49:54.915Z,33.23
2018-12-30T16:52:23.167Z,25.23
2018-12-30T16:54:51.454Z,22.03
2018-12-30T16:57:19.827Z,22.53
2018-12-30T16:59:48.981Z,18.43
2018-12-30T17:02:17.281Z,21.87
2018-12-30T17:04:45.626Z,24.33
2018-12-30T17:07:14.005Z,21.00
2018-12-30T17:09:42.253Z,23.43
2018-12-30T17:12:10.540Z,22.93
2018-12-30T17:14:38.799Z,20.07
2018-12-30T17:17:07.090Z,24.03
2018-12-30T17:19:35.337Z,31.10
2018-12-30T17:22:03.639Z,30.57
2018-12-30T17:24:32.536Z,30.67
2018-12-30T17:27:00.830Z,29.63
2018-12-30T17:29:29.171Z,45.80
2018-12-30T17:31:57.459Z,33.90
2018-12-30T17:34:25.823Z,32.83
2018-12-30T17:36:54.123Z,41.93
2018-12-30T17:39:22.400Z,30.53
2018-12-30T17:41:50.662Z,30.03
2018-12-30T17:44:19.660Z,25.73
2018-12-30T17:46:47.940Z,27.70
2018-12-30T17:49:16.251Z,29.67
2018-12-30T17:51:47.516Z,28.17
2018-12-30T17:54:15.772Z,24.37
2018-12-30T17:56:44.941Z,26.30
2018-12-30T17:59:13.221Z,27.20
2018-12-30T18:01:41.531Z,24.40
2018-12-30T18:04:09.814Z,26.17
2018-12-30T18:06:38.075Z,27.43
2018-12-30T18:09:06.437Z,22.90
2018-12-30T18:11:34.769Z,23.10
2018-12-30T18:14:03.051Z,23.37
2018-12-30T18:16:31.325Z,26.53
2018-12-30T18:18:59.624Z,27.50
2018-12-30T18:21:27.882Z,30.10
2018-12-30T18:23:56.348Z,30.33
2018-12-30T18:26:24.640Z,31.87
2018-12-30T18:28:52.901Z,28.90
2018-12-30T18:31:21.214Z,26.87
2018-12-30T18:33:49.499Z,29.80
2018-12-30T18:36:17.826Z,28.53
2018-12-30T18:38:46.080Z,32.73
2018-12-30T18:41:14.451Z,30.27
2018-12-30T18:43:42.716Z,28.87
2018-12-30T18:46:11.008Z,27.27
2018-12-30T18:48:39.317Z,28.63
2018-12-30T18:51:08.439Z,28.83
2018-12-30T18:53:36.751Z,30.60
2018-12-30T18:56:06.883Z,28.80
2018-12-30T18:58:35.107Z,27.33
2018-12-30T19:01:03.457Z,28.43
2018-12-30T19:03:31.708Z,28.07
2018-12-30T19:06:00.411Z,26.83
2018-12-30T19:08:28.702Z,28.20
2018-12-30T19:10:56.961Z,25.80
2018-12-30T19:13:25.329Z,27.30
2018-12-30T19:15:53.580Z,29.50
2018-12-30T19:18:21.938Z,33.27
2018-12-30T19:20:50.190Z,29.20
2018-12-30T19:23:18.456Z,29.50
2018-12-30T19:25:46.747Z,34.70
2018-12-30T19:28:15.057Z,39.57
2018-12-30T19:30:43.388Z,34.00
2018-12-30T19:33:11.673Z,32.23
2018-12-30T19:35:40.056Z,30.47
2018-12-30T19:38:08.327Z,32.70
2018-12-30T19:40:36.641Z,39.43
2018-12-30T19:43:05.040Z,32.87
2018-12-30T19:45:33.382Z,31.30
2018-12-30T19:48:02.611Z,39.80
2018-12-30T19:50:30.964Z,28.80
2018-12-30T19:52:59.292Z,28.80
2018-12-30T19:55:27.563Z,32.93
2018-12-30T19:57:56.274Z,36.30
2018-12-30T20:00:24.899Z,33.57
2018-12-30T20:02:54.442Z,35.23
2018-12-30T20:05:22.966Z,34.97
2018-12-30T20:07:55.030Z,32.63
2018-12-30T20:10:23.478Z,33.90
2018-12-30T20:12:51.978Z,39.70
2018-12-30T20:15:21.030Z,33.27
2018-12-30T20:17:49.452Z,33.97
2018-12-30T20:20:18.047Z,30.67
2018-12-30T20:22:46.963Z,34.00
2018-12-30T20:25:15.495Z,33.13
2018-12-30T20:27:43.932Z,35.47
2018-12-30T20:30:12.497Z,33.07
2018-12-30T20:32:41.010Z,36.30
2018-12-30T20:35:09.405Z,33.90
2018-12-30T20:37:37.877Z,31.00
2018-12-30T20:40:06.410Z,36.30
2018-12-30T20:42:34.668Z,30.90
2018-12-30T20:45:03.071Z,36.27
2018-12-30T20:47:31.341Z,32.67
2018-12-30T20:50:00.243Z,30.20
2018-12-30T20:52:28.553Z,32.67
2018-12-30T20:54:56.902Z,41.63
2018-12-30T20:57:26.982Z,33.87
2018-12-30T20:59:55.291Z,31.27
2018-12-30T21:02:24.084Z,28.27
2018-12-30T21:04:55.441Z,33.57
2018-12-30T21:07:23.771Z,32.73
2018-12-30T21:09:52.448Z,32.27
2018-12-30T21:12:20.753Z,32.53
2018-12-30T21:14:49.121Z,30.10
2018-12-30T21:17:17.458Z,34.87
2018-12-30T21:19:45.874Z,32.10
2018-12-30T21:22:14.134Z,36.13
2018-12-30T21:24:42.442Z,33.10
2018-12-30T21:27:10.743Z,32.47
2018-12-30T21:29:39.027Z,36.73
2018-12-30T21:32:10.065Z,33.93
2018-12-30T21:34:38.427Z,31.73
2018-12-30T21:37:09.152Z,31.53
2018-12-30T21:39:37.462Z,28.77
2018-12-30T21:42:05.751Z,28.93
2018-12-30T21:44:34.147Z,34.13
2018-12-30T21:47:02.479Z,30.43
2018-12-30T21:49:30.792Z,32.93
2018-12-30T21:51:59.070Z,28.57
2018-12-30T21:54:27.407Z,30.17
2018-12-30T21:56:55.697Z,29.50
2018-12-30T21:59:23.974Z,25.93
2018-12-30T22:01:52.356Z,25.70
2018-12-30T22:04:20.631Z,25.43
2018-12-30T22:06:48.927Z,36.60
2018-12-30T22:09:17.367Z,37.47
2018-12-30T22:11:45.656Z,37.80
2018-12-30T22:14:13.914Z,41.30
2018-12-30T22:16:42.814Z,35.40
2018-12-30T22:19:11.077Z,33.03
2018-12-30T22:21:39.335Z,37.03
2018-12-30T22:24:07.703Z,39.70
2018-12-30T22:26:35.966Z,32.17
2018-12-30T22:29:04.262Z,32.57
2018-12-30T22:31:32.843Z,34.90
2018-12-30T22:34:01.170Z,26.07
2018-12-30T22:36:29.487Z,28.10
2018-12-30T22:38:57.792Z,35.50
2018-12-30T22:41:26.085Z,27.93
2018-12-30T22:43:54.382Z,32.63
2018-12-30T22:46:22.705Z,29.67
2018-12-30T22:48:51.038Z,29.07
2018-12-30T22:51:19.311Z,27.40
2018-12-30T22:53:47.649Z,27.07
2018-12-30T22:56:15.912Z,28.33
2018-12-30T22:58:44.224Z,26.77
2018-12-30T23:01:12.850Z,26.20
2018-12-30T23:03:41.362Z,31.33
2018-12-30T23:06:09.619Z,24.23
2018-12-30T23:08:37.891Z,25.00
2018-12-30T23:11:06.207Z,37.37
2018-12-30T23:13:34.517Z,28.90
2018-12-30T23:16:02.923Z,27.13
2018-12-30T23:18:31.213Z,30.83
2018-12-30T23:20:59.518Z,34.37
2018-12-30T23:23:27.898Z,30.47
2018-12-30T23:25:56.233Z,25.60
2018-12-30T23:28:24.493Z,29.00
2018-12-30T23:30:52.894Z,35.13
2018-12-30T23:33:21.901Z,26.40
2018-12-30T23:35:50.607Z,31.93
2018-12-30T23:38:18.914Z,35.40
2018-12-30T23:40:47.248Z,32.93
2018-12-30T23:43:15.520Z,34.37
2018-12-30T23:45:43.977Z,34.73
2018-12-30T23:48:12.748Z,35.83
2018-12-30T23:50:41.308Z,41.07
2018-12-30T23:53:09.721Z,30.07
2018-12-30T23:55:38.103Z,23.90
2018-12-30T23:58:09.383Z,39.20
